Terminal Aerodrome Forecast
Issued by NWS

Home | Current Version | Previous Version | Text Only | Print | Product List | Glossary On
Versions: 1 2 3 4 5 6 7 8 9 10 11 12 13 14 15 16 17
000
FTUS42 KMLB 041127
TAFSFB
TAF
KSFB 041127Z 0412/0512 19006KT P6SM FEW015 SCT030 SCT250
     FM041330 23007KT P6SM SCT025 SCT100 BKN250
     FM041900 23008KT P6SM VCTS SCT030CB BKN250
      TEMPO 0420/0422 3SM TSRA BKN030CB BKN060
     FM050000 21004KT P6SM SCT040 SCT250
     FM050600 20003KT P6SM SCT250=

USA.gov is the U.S. government's official web portal to all federal, state and local government web resources and services.